Time;durP1;ratioP1;P1;durP2;ratioP2;P2;SDS_P1;SDS_P2;PMS_P1;PMS_P2;Temp;Humidity;BMP_temperature;BMP_pressure;BME280_temperature;BME280_humidity;BME280_pressure;Samples;Min_cycle;Max_cycle;Signal;HPM_P1;HPM_P2
2022/06/26 00:01:32;;;;;;;45.00;27.95;;;;;;;;;;5070818;28;20115;-77
2022/06/26 00:03:58;;;;;;;41.45;24.77;;;;;;;;;;5073766;28;20040;-77
2022/06/26 00:06:24;;;;;;;43.65;26.25;;;;;;;;;;5075978;28;20056;-80
2022/06/26 00:08:49;;;;;;;47.00;26.27;;;;;;;;;;5076404;28;20506;-76
2022/06/26 00:11:15;;;;;;;38.80;25.52;;;;;;;;;;5080297;28;20070;-79
2022/06/26 00:13:40;;;;;;;45.22;27.08;;;;;;;;;;5085258;28;20418;-79
2022/06/26 00:16:06;;;;;;;48.33;26.90;;;;;;;;;;5085118;28;20136;-78
2022/06/26 00:18:31;;;;;;;38.70;24.42;;;;;;;;;;5080087;28;20028;-78
2022/06/26 00:20:57;;;;;;;43.25;25.77;;;;;;;;;;5077194;28;20049;-79
2022/06/26 00:23:22;;;;;;;36.83;25.35;;;;;;;;;;5058710;28;20021;-78
2022/06/26 00:25:48;;;;;;;40.95;24.65;;;;;;;;;;5054207;28;20025;-78
2022/06/26 00:28:13;;;;;;;44.60;24.27;;;;;;;;;;5052560;28;20025;-79
2022/06/26 00:30:39;;;;;;;37.83;24.27;;;;;;;;;;5053971;28;20500;-78
2022/06/26 00:33:04;;;;;;;38.60;24.83;;;;;;;;;;5052273;28;20031;-78
2022/06/26 00:35:30;;;;;;;38.17;23.95;;;;;;;;;;5053676;28;20031;-77
2022/06/26 00:37:55;;;;;;;41.33;25.15;;;;;;;;;;5052054;28;20661;-78
2022/06/26 00:40:21;;;;;;;48.45;25.45;;;;;;;;;;5053582;28;20516;-78
2022/06/26 00:42:47;;;;;;;40.83;25.67;;;;;;;;;;5051941;28;20017;-78
2022/06/26 00:45:12;;;;;;;36.38;23.42;;;;;;;;;;5053327;28;20028;-78
2022/06/26 00:47:38;;;;;;;41.25;24.55;;;;;;;;;;5051850;28;20056;-79
2022/06/26 00:50:07;;;;;;;48.15;26.30;;;;;;;;;;5052094;28;20102;-78
2022/06/26 00:52:34;;;;;;;40.55;26.90;;;;;;;;;;5051654;28;20040;-78
2022/06/26 00:54:59;;;;;;;43.47;27.02;;;;;;;;;;5051787;28;20029;-78
2022/06/26 00:57:25;;;;;;;47.53;27.73;;;;;;;;;;5051459;28;20021;-78
2022/06/26 00:59:50;;;;;;;45.67;27.05;;;;;;;;;;5051753;28;20124;-77
2022/06/26 01:02:16;;;;;;;47.08;27.77;;;;;;;;;;5051868;28;20057;-77
2022/06/26 01:04:42;;;;;;;42.97;26.25;;;;;;;;;;5053597;28;20017;-78
2022/06/26 01:07:08;;;;;;;43.30;25.95;;;;;;;;;;5051624;28;20450;-78
2022/06/26 01:09:34;;;;;;;40.08;25.73;;;;;;;;;;5052677;28;20029;-78
2022/06/26 01:11:59;;;;;;;46.53;27.92;;;;;;;;;;5051464;28;20090;-78
2022/06/26 01:14:25;;;;;;;44.22;27.45;;;;;;;;;;5051439;28;20029;-77
2022/06/26 01:16:51;;;;;;;47.80;26.63;;;;;;;;;;5051169;28;20025;-77
2022/06/26 01:19:18;;;;;;;47.10;27.67;;;;;;;;;;5051391;28;20021;-78
2022/06/26 01:21:44;;;;;;;53.03;28.25;;;;;;;;;;5052287;28;20119;-78
2022/06/26 01:24:10;;;;;;;44.08;26.27;;;;;;;;;;5071032;28;20048;-78
2022/06/26 01:26:37;;;;;;;44.90;26.83;;;;;;;;;;5071134;28;20500;-79
2022/06/26 01:29:03;;;;;;;52.50;28.63;;;;;;;;;;5072525;28;20086;-78
2022/06/26 01:31:32;;;;;;;52.28;27.23;;;;;;;;;;5072492;28;20070;-78
2022/06/26 01:33:59;;;;;;;48.58;26.08;;;;;;;;;;5072718;28;20021;-78
2022/06/26 01:36:24;;;;;;;50.92;28.58;;;;;;;;;;5070939;28;20020;-79
2022/06/26 01:38:50;;;;;;;43.53;25.10;;;;;;;;;;5054395;28;20504;-79
2022/06/26 01:41:16;;;;;;;49.10;27.60;;;;;;;;;;5054606;28;20033;-79
2022/06/26 01:43:42;;;;;;;46.30;26.70;;;;;;;;;;5073266;28;20422;-81
2022/06/26 01:46:07;;;;;;;41.75;24.88;;;;;;;;;;5073556;28;20028;-78
2022/06/26 01:48:35;;;;;;;49.15;27.73;;;;;;;;;;5071119;28;20061;-79
2022/06/26 01:51:02;;;;;;;47.53;26.63;;;;;;;;;;5070590;28;20031;-77
2022/06/26 01:53:29;;;;;;;46.05;25.92;;;;;;;;;;5071826;28;20031;-78
2022/06/26 01:55:54;;;;;;;41.55;23.83;;;;;;;;;;5072202;28;20024;-78
2022/06/26 01:58:20;;;;;;;46.58;26.80;;;;;;;;;;5072148;28;20025;-77
2022/06/26 02:00:48;;;;;;;44.50;26.63;;;;;;;;;;5071317;28;20111;-78
2022/06/26 02:03:15;;;;;;;45.95;26.05;;;;;;;;;;5055509;28;20036;-78
2022/06/26 02:05:41;;;;;;;44.72;26.25;;;;;;;;;;5071885;28;20033;-78
2022/06/26 02:08:07;;;;;;;45.72;27.52;;;;;;;;;;5075048;28;20328;-78
2022/06/26 02:13:36;;;;;;;46.03;24.60;;;;;;;;;;5085692;28;20091;-77
2022/06/26 02:16:21;;;;;;;43.47;24.60;;;;;;;;;;5077383;28;20123;-79
2022/06/26 02:18:49;;;;;;;37.80;23.00;;;;;;;;;;5073304;28;20035;-78
2022/06/26 02:21:17;;;;;;;44.83;24.52;;;;;;;;;;5072429;28;20113;-77
2022/06/26 02:23:44;;;;;;;40.70;23.58;;;;;;;;;;5054597;28;20033;-80
2022/06/26 02:26:10;;;;;;;42.08;22.83;;;;;;;;;;5052214;28;20432;-78
2022/06/26 02:28:37;;;;;;;42.25;22.35;;;;;;;;;;5055606;28;20028;-78
2022/06/26 02:31:03;;;;;;;43.33;22.23;;;;;;;;;;5060748;28;20029;-79
2022/06/26 02:33:29;;;;;;;43.45;23.25;;;;;;;;;;5057568;28;20496;-79
2022/06/26 02:35:55;;;;;;;52.03;23.92;;;;;;;;;;5050700;28;20035;-78
2022/06/26 02:38:23;;;;;;;48.58;24.02;;;;;;;;;;5051450;28;20021;-78
2022/06/26 02:40:49;;;;;;;47.00;23.60;;;;;;;;;;5033484;28;20041;-79
2022/06/26 02:43:18;;;;;;;45.10;23.52;;;;;;;;;;5050323;28;20397;-78
2022/06/26 02:45:44;;;;;;;46.20;23.15;;;;;;;;;;5050145;28;20017;-80
2022/06/26 02:48:10;;;;;;;49.97;24.00;;;;;;;;;;5050151;28;20384;-79
2022/06/26 02:50:36;;;;;;;56.63;23.80;;;;;;;;;;5050079;28;20496;-78
2022/06/26 02:53:02;;;;;;;52.55;23.73;;;;;;;;;;5049833;28;20090;-78
2022/06/26 02:55:28;;;;;;;53.80;25.50;;;;;;;;;;5050115;28;20071;-79
2022/06/26 02:57:54;;;;;;;60.00;26.00;;;;;;;;;;5049656;28;20020;-79
2022/06/26 03:00:19;;;;;;;60.22;25.92;;;;;;;;;;5049677;28;20024;-79
2022/06/26 03:02:45;;;;;;;55.90;24.50;;;;;;;;;;5049463;28;20056;-78
2022/06/26 03:05:11;;;;;;;53.17;24.27;;;;;;;;;;5051011;28;20028;-79
2022/06/26 03:07:36;;;;;;;56.05;23.83;;;;;;;;;;5050282;28;20104;-78
2022/06/26 03:10:02;;;;;;;46.90;24.23;;;;;;;;;;5050843;28;20036;-79
2022/06/26 03:12:28;;;;;;;46.45;24.05;;;;;;;;;;5049295;28;20031;-78
2022/06/26 03:14:53;;;;;;;57.60;24.00;;;;;;;;;;5049690;28;20025;-78
2022/06/26 03:17:19;;;;;;;47.42;23.83;;;;;;;;;;5050675;28;20078;-78
2022/06/26 03:19:44;;;;;;;43.17;23.98;;;;;;;;;;5049327;28;20363;-78
2022/06/26 03:22:10;;;;;;;46.97;23.88;;;;;;;;;;5054202;28;20099;-78
2022/06/26 03:24:37;;;;;;;44.08;22.27;;;;;;;;;;5068994;28;20079;-78
2022/06/26 03:27:03;;;;;;;42.38;22.55;;;;;;;;;;5070663;28;20028;-79
2022/06/26 03:29:29;;;;;;;42.28;21.45;;;;;;;;;;5069173;28;20040;-79
2022/06/26 03:31:55;;;;;;;37.05;20.58;;;;;;;;;;5070040;28;20071;-79
2022/06/26 03:34:21;;;;;;;31.20;19.40;;;;;;;;;;5070211;28;20103;-78
2022/06/26 03:36:47;;;;;;;32.63;18.73;;;;;;;;;;5070215;28;20032;-78
2022/06/26 03:39:12;;;;;;;34.35;18.42;;;;;;;;;;5069020;28;20032;-78
2022/06/26 03:41:39;;;;;;;34.83;19.98;;;;;;;;;;5068716;28;20032;-79
2022/06/26 03:44:04;;;;;;;32.60;19.58;;;;;;;;;;5068978;28;20017;-79
2022/06/26 03:46:31;;;;;;;33.50;19.35;;;;;;;;;;5070051;28;20043;-78
2022/06/26 03:48:56;;;;;;;34.03;18.80;;;;;;;;;;5070596;28;20511;-78
2022/06/26 03:51:22;;;;;;;36.60;20.17;;;;;;;;;;5070244;28;20047;-78
2022/06/26 03:53:48;;;;;;;35.00;19.40;;;;;;;;;;5069873;28;20040;-78
2022/06/26 03:56:14;;;;;;;30.75;18.75;;;;;;;;;;5068968;28;20189;-79
2022/06/26 03:58:40;;;;;;;33.50;19.80;;;;;;;;;;5068297;28;20066;-78
2022/06/26 04:01:05;;;;;;;37.80;18.85;;;;;;;;;;5069931;28;20037;-78
2022/06/26 04:03:31;;;;;;;35.47;22.38;;;;;;;;;;5069920;28;20078;-79
2022/06/26 04:05:56;;;;;;;32.65;19.35;;;;;;;;;;5068517;28;20480;-79
2022/06/26 04:08:22;;;;;;;36.22;19.02;;;;;;;;;;5070162;28;20380;-78
2022/06/26 04:10:49;;;;;;;30.55;17.70;;;;;;;;;;5069584;28;20499;-77
2022/06/26 04:13:14;;;;;;;32.53;17.67;;;;;;;;;;5069831;28;20128;-78
2022/06/26 04:15:41;;;;;;;29.08;17.90;;;;;;;;;;5068644;28;20524;-79
2022/06/26 04:18:07;;;;;;;26.75;16.38;;;;;;;;;;5069820;28;20032;-78
2022/06/26 04:20:33;;;;;;;25.75;16.45;;;;;;;;;;5068013;28;20178;-78
2022/06/26 04:23:01;;;;;;;25.67;15.75;;;;;;;;;;5056558;28;20174;-77
2022/06/26 04:25:29;;;;;;;32.20;16.85;;;;;;;;;;5048064;28;20025;-77
2022/06/26 04:27:55;;;;;;;33.97;18.08;;;;;;;;;;5048081;28;20029;-79
2022/06/26 04:30:20;;;;;;;36.05;17.95;;;;;;;;;;5048406;28;20535;-79
2022/06/26 04:32:46;;;;;;;34.55;18.33;;;;;;;;;;5049685;28;20036;-78
2022/06/26 04:35:12;;;;;;;31.45;18.20;;;;;;;;;;5050518;28;20155;-79
2022/06/26 04:37:38;;;;;;;28.92;17.50;;;;;;;;;;5052054;28;20035;-78
2022/06/26 04:40:05;;;;;;;26.50;16.70;;;;;;;;;;5050925;28;20032;-77
2022/06/26 04:42:30;;;;;;;30.77;16.40;;;;;;;;;;5048791;28;20116;-78
2022/06/26 04:44:56;;;;;;;27.23;16.05;;;;;;;;;;5048004;28;20580;-79
2022/06/26 04:47:21;;;;;;;29.48;17.35;;;;;;;;;;5047945;28;20488;-78
2022/06/26 04:49:47;;;;;;;40.60;18.35;;;;;;;;;;5048272;28;20025;-78
2022/06/26 04:52:14;;;;;;;26.15;15.85;;;;;;;;;;5048089;28;20397;-77
2022/06/26 04:54:40;;;;;;;28.42;16.70;;;;;;;;;;5049114;28;20041;-78
2022/06/26 04:57:06;;;;;;;31.45;18.40;;;;;;;;;;5049438;28;20024;-77
2022/06/26 04:59:31;;;;;;;41.40;19.23;;;;;;;;;;5049758;28;20082;-78
2022/06/26 05:01:57;;;;;;;34.50;19.17;;;;;;;;;;5053157;28;20044;-77
2022/06/26 05:04:22;;;;;;;35.10;19.17;;;;;;;;;;5052295;28;20461;-79
2022/06/26 05:06:48;;;;;;;28.73;17.52;;;;;;;;;;5051459;28;20037;-78
2022/06/26 05:09:13;;;;;;;31.20;18.20;;;;;;;;;;5051918;28;20476;-78
2022/06/26 05:11:40;;;;;;;32.75;18.77;;;;;;;;;;5051713;28;20028;-77
2022/06/26 05:14:05;;;;;;;31.23;18.92;;;;;;;;;;5051626;28;20048;-78
2022/06/26 05:16:31;;;;;;;36.70;21.02;;;;;;;;;;5051874;28;20025;-77
2022/06/26 05:18:57;;;;;;;36.78;21.02;;;;;;;;;;5051485;28;20056;-78
2022/06/26 05:21:22;;;;;;;39.38;20.60;;;;;;;;;;5052631;28;20477;-79
2022/06/26 05:23:48;;;;;;;41.15;22.27;;;;;;;;;;5050891;28;20025;-77
2022/06/26 05:26:13;;;;;;;38.50;21.30;;;;;;;;;;5051346;28;20036;-78
2022/06/26 05:28:39;;;;;;;38.45;21.00;;;;;;;;;;5050851;28;20037;-77
2022/06/26 05:31:05;;;;;;;37.78;22.35;;;;;;;;;;5051201;28;20268;-78
2022/06/26 05:33:30;;;;;;;40.97;22.15;;;;;;;;;;5051091;28;20487;-78
2022/06/26 05:35:56;;;;;;;37.67;21.48;;;;;;;;;;5051318;28;20025;-79
2022/06/26 05:38:21;;;;;;;40.08;21.90;;;;;;;;;;5051428;28;20036;-79
2022/06/26 05:40:47;;;;;;;43.05;21.45;;;;;;;;;;5052378;28;20443;-78
2022/06/26 05:43:12;;;;;;;45.28;22.98;;;;;;;;;;5052689;28;20025;-78
2022/06/26 05:45:38;;;;;;;46.65;23.67;;;;;;;;;;5052628;28;20129;-78
2022/06/26 05:48:03;;;;;;;44.65;22.73;;;;;;;;;;5051011;28;20033;-78
2022/06/26 05:50:29;;;;;;;46.40;23.73;;;;;;;;;;5054249;28;20124;-79
2022/06/26 05:52:55;;;;;;;48.60;25.40;;;;;;;;;;5062321;28;20029;-78
2022/06/26 05:55:21;;;;;;;43.65;21.88;;;;;;;;;;5059410;28;20021;-79
2022/06/26 05:57:46;;;;;;;44.92;23.38;;;;;;;;;;5052405;28;20457;-79
2022/06/26 06:00:13;;;;;;;46.08;24.90;;;;;;;;;;5050397;28;20031;-78
2022/06/26 06:02:39;;;;;;;48.88;27.30;;;;;;;;;;5051998;28;20041;-77
2022/06/26 06:05:05;;;;;;;46.00;22.20;;;;;;;;;;5050547;28;20033;-78
2022/06/26 06:07:30;;;;;;;41.53;22.40;;;;;;;;;;5052086;28;20036;-78
2022/06/26 06:09:56;;;;;;;48.70;23.85;;;;;;;;;;5050313;28;20044;-79
2022/06/26 06:12:21;;;;;;;38.75;22.40;;;;;;;;;;5048868;28;20060;-79
2022/06/26 06:14:47;;;;;;;40.20;22.88;;;;;;;;;;5050147;28;20530;-78
2022/06/26 06:19:56;;;;;;;36.38;20.85;;;;;;;;;;5051747;28;20060;-79
2022/06/26 06:22:22;;;;;;;34.10;19.45;;;;;;;;;;5051818;28;20041;-80
2022/06/26 06:24:47;;;;;;;31.88;20.38;;;;;;;;;;5051558;28;20036;-79
2022/06/26 06:27:13;;;;;;;35.53;20.30;;;;;;;;;;5050139;28;20033;-79
2022/06/26 06:29:38;;;;;;;37.50;20.25;;;;;;;;;;5051347;28;20025;-78
2022/06/26 06:32:05;;;;;;;30.40;18.73;;;;;;;;;;5049753;28;20032;-77
2022/06/26 06:34:30;;;;;;;34.03;21.00;;;;;;;;;;5050314;28;20382;-78
2022/06/26 06:36:56;;;;;;;30.55;19.98;;;;;;;;;;5051803;28;20416;-79
2022/06/26 06:39:21;;;;;;;33.17;20.40;;;;;;;;;;5050000;28;20112;-78
2022/06/26 06:41:47;;;;;;;32.13;19.80;;;;;;;;;;5050581;28;20032;-79
2022/06/26 06:44:12;;;;;;;32.55;20.58;;;;;;;;;;5055185;28;20574;-78
2022/06/26 06:46:38;;;;;;;36.42;20.27;;;;;;;;;;5052951;28;20025;-78
2022/06/26 06:49:03;;;;;;;33.88;20.48;;;;;;;;;;5050103;28;20039;-78
2022/06/26 06:51:29;;;;;;;31.70;19.10;;;;;;;;;;5050208;28;20107;-78
2022/06/26 06:53:54;;;;;;;33.03;19.55;;;;;;;;;;5049476;28;20132;-78
2022/06/26 06:56:20;;;;;;;33.28;19.98;;;;;;;;;;5049846;28;20025;-78
2022/06/26 06:58:46;;;;;;;34.05;19.95;;;;;;;;;;5049320;28;20032;-78
2022/06/26 07:01:11;;;;;;;30.35;19.52;;;;;;;;;;5049685;28;20028;-78
2022/06/26 07:03:37;;;;;;;30.10;20.05;;;;;;;;;;5050949;28;20385;-79
2022/06/26 07:06:02;;;;;;;28.13;18.45;;;;;;;;;;5051073;28;20029;-79
2022/06/26 07:08:28;;;;;;;31.17;19.67;;;;;;;;;;5051861;28;20029;-79
2022/06/26 07:10:53;;;;;;;28.50;19.17;;;;;;;;;;5052650;28;20382;-77
2022/06/26 07:13:20;;;;;;;26.65;18.33;;;;;;;;;;5069249;28;20017;-77
2022/06/26 07:15:46;;;;;;;31.15;20.25;;;;;;;;;;5070331;28;20059;-76
2022/06/26 07:18:11;;;;;;;23.55;17.70;;;;;;;;;;5067573;28;20017;-81
2022/06/26 07:20:37;;;;;;;28.45;18.05;;;;;;;;;;5052798;28;20049;-78
2022/06/26 07:23:03;;;;;;;27.25;19.08;;;;;;;;;;5033291;28;20033;-78
2022/06/26 07:25:28;;;;;;;24.92;17.77;;;;;;;;;;5050086;28;20024;-79
2022/06/26 07:27:54;;;;;;;21.80;15.48;;;;;;;;;;5033642;28;20029;-79
2022/06/26 07:30:19;;;;;;;27.92;18.10;;;;;;;;;;5049672;28;20017;-77
2022/06/26 07:32:46;;;;;;;21.10;15.95;;;;;;;;;;5051799;28;20060;-78
2022/06/26 07:35:11;;;;;;;25.83;17.00;;;;;;;;;;5049408;28;20059;-78
2022/06/26 07:37:37;;;;;;;28.00;17.73;;;;;;;;;;5049451;28;20331;-78
2022/06/26 07:40:06;;;;;;;31.80;19.80;;;;;;;;;;5049945;28;20507;-78
2022/06/26 07:42:31;;;;;;;25.77;18.15;;;;;;;;;;5050707;28;20056;-78
2022/06/26 07:44:57;;;;;;;27.45;19.10;;;;;;;;;;5049942;28;20110;-77
2022/06/26 07:47:22;;;;;;;26.92;17.73;;;;;;;;;;5048691;28;20480;-78
2022/06/26 07:49:49;;;;;;;28.27;18.15;;;;;;;;;;5050021;28;20559;-77
2022/06/26 07:52:14;;;;;;;26.33;17.70;;;;;;;;;;5048529;28;20021;-79
2022/06/26 07:54:41;;;;;;;27.42;18.73;;;;;;;;;;5048374;28;20028;-79
2022/06/26 07:57:06;;;;;;;25.02;18.55;;;;;;;;;;5049612;28;20066;-79
2022/06/26 07:59:33;;;;;;;24.83;17.92;;;;;;;;;;5049555;28;20021;-80
2022/06/26 08:01:59;;;;;;;25.95;18.10;;;;;;;;;;5048667;28;20021;-79
2022/06/26 08:04:24;;;;;;;20.08;16.80;;;;;;;;;;5048290;28;20021;-79
2022/06/26 08:06:50;;;;;;;28.00;18.13;;;;;;;;;;5049411;28;20067;-78
2022/06/26 08:09:15;;;;;;;20.33;15.65;;;;;;;;;;5049708;28;20033;-79
2022/06/26 08:11:41;;;;;;;24.80;17.10;;;;;;;;;;5049694;28;20029;-79
2022/06/26 08:14:06;;;;;;;23.77;15.43;;;;;;;;;;5049717;28;20389;-79
2022/06/26 08:16:32;;;;;;;18.55;14.45;;;;;;;;;;5050241;28;20029;-78
2022/06/26 08:18:57;;;;;;;17.95;14.38;;;;;;;;;;5049007;28;20028;-78
2022/06/26 08:24:07;;;;;;;23.08;14.80;;;;;;;;;;5030219;28;20029;-79
2022/06/26 08:26:32;;;;;;;15.93;12.80;;;;;;;;;;5044854;28;20026;-79
2022/06/26 08:28:58;;;;;;;16.45;13.02;;;;;;;;;;5030010;28;20017;-79
2022/06/26 08:31:24;;;;;;;17.45;12.70;;;;;;;;;;5045237;28;20106;-77
2022/06/26 08:33:49;;;;;;;14.73;12.05;;;;;;;;;;5029646;28;20061;-76
2022/06/26 08:36:15;;;;;;;16.70;13.20;;;;;;;;;;5048312;28;20082;-78
2022/06/26 08:38:41;;;;;;;23.50;14.32;;;;;;;;;;5032771;28;20307;-78
2022/06/26 08:41:09;;;;;;;20.63;12.55;;;;;;;;;;5049086;28;20017;-77
2022/06/26 08:43:39;;;;;;;15.35;12.93;;;;;;;;;;5033899;28;20017;-78
2022/06/26 08:46:05;;;;;;;17.42;11.70;;;;;;;;;;5049286;28;20030;-76
2022/06/26 08:48:41;;;;;;;14.55;9.48;;;;;;;;;;5049274;28;20044;-76
2022/06/26 08:51:08;;;;;;;9.88;8.38;;;;;;;;;;5048262;28;20040;-76
2022/06/26 08:53:35;;;;;;;10.70;7.95;;;;;;;;;;5033238;28;20047;-76
2022/06/26 08:56:01;;;;;;;10.32;8.07;;;;;;;;;;5031301;28;20044;-75
2022/06/26 08:58:28;;;;;;;12.82;9.70;;;;;;;;;;5049392;28;20732;-76
2022/06/26 09:00:54;;;;;;;11.27;9.98;;;;;;;;;;5033011;28;20029;-76
2022/06/26 09:03:19;;;;;;;12.93;9.45;;;;;;;;;;5048039;28;20100;-76
2022/06/26 09:05:45;;;;;;;11.52;9.93;;;;;;;;;;5031870;28;20040;-76
2022/06/26 09:08:18;;;;;;;15.95;10.15;;;;;;;;;;5033135;28;20460;-76
2022/06/26 09:10:46;;;;;;;11.27;8.32;;;;;;;;;;5031553;28;20033;-75
2022/06/26 09:13:12;;;;;;;10.68;8.20;;;;;;;;;;5048666;28;20068;-78
2022/06/26 09:15:42;;;;;;;10.88;9.10;;;;;;;;;;5050819;28;20029;-76
2022/06/26 09:18:12;;;;;;;14.18;12.45;;;;;;;;;;5050014;28;20132;-76
2022/06/26 09:20:50;;;;;;;12.02;10.80;;;;;;;;;;5048126;28;20042;-76
2022/06/26 09:23:16;;;;;;;13.32;10.25;;;;;;;;;;5060257;28;20024;-76
2022/06/26 09:25:44;;;;;;;19.77;11.00;;;;;;;;;;5073354;28;20036;-77
2022/06/26 09:28:20;;;;;;;15.15;11.15;;;;;;;;;;5072655;28;20033;-75
2022/06/26 09:31:03;;;;;;;12.38;11.05;;;;;;;;;;5071982;28;20272;-77
2022/06/26 09:33:31;;;;;;;16.48;10.77;;;;;;;;;;5072989;28;20020;-77
2022/06/26 09:35:58;;;;;;;14.13;10.85;;;;;;;;;;5073527;28;20468;-76
2022/06/26 09:38:26;;;;;;;13.02;9.55;;;;;;;;;;5080110;28;20025;-81
2022/06/26 09:41:12;;;;;;;15.63;10.15;;;;;;;;;;5081615;28;20032;-80
2022/06/26 09:43:42;;;;;;;18.05;12.73;;;;;;;;;;5073321;28;20048;-81
2022/06/26 09:46:13;;;;;;;13.73;9.60;;;;;;;;;;5073539;28;20024;-82
2022/06/26 09:48:40;;;;;;;11.13;9.65;;;;;;;;;;5074661;28;20460;-82
2022/06/26 09:51:10;;;;;;;18.02;11.43;;;;;;;;;;5073504;28;20028;-78
2022/06/26 09:53:37;;;;;;;19.70;13.80;;;;;;;;;;5072209;28;20068;-79
2022/06/26 09:56:05;;;;;;;16.77;12.55;;;;;;;;;;5072773;28;20269;-81
2022/06/26 09:58:31;;;;;;;15.55;10.88;;;;;;;;;;5073138;28;20029;-85
2022/06/26 10:06:29;;;;;;;15.32;10.02;;;;;;;;;;5074484;28;20115;-84
2022/06/26 10:09:03;;;;;;;18.70;11.32;;;;;;;;;;5073748;28;20359;-83
2022/06/26 10:11:30;;;;;;;18.35;11.30;;;;;;;;;;5072415;28;20087;-83
2022/06/26 10:14:03;;;;;;;12.48;11.18;;;;;;;;;;5071040;28;20059;-83
2022/06/26 10:16:48;;;;;;;12.15;10.23;;;;;;;;;;5072380;28;20020;-82
2022/06/26 10:19:31;;;;;;;13.95;10.43;;;;;;;;;;5074018;28;20036;-83
2022/06/26 10:21:57;;;;;;;11.27;8.75;;;;;;;;;;5071646;28;20041;-80
2022/06/26 10:24:22;;;;;;;9.45;8.55;;;;;;;;;;5054269;28;20035;-82
2022/06/26 10:26:54;;;;;;;14.95;10.02;;;;;;;;;;5051037;28;20112;-81
2022/06/26 10:29:19;;;;;;;12.52;9.15;;;;;;;;;;5052013;28;20017;-83
2022/06/26 10:31:47;;;;;;;11.70;7.75;;;;;;;;;;5051031;28;20044;-83
2022/06/26 10:34:19;;;;;;;9.98;7.70;;;;;;;;;;5050949;28;20047;-83
2022/06/26 10:37:06;;;;;;;12.70;8.07;;;;;;;;;;5052290;28;20025;-83
2022/06/26 10:39:41;;;;;;;9.27;8.18;;;;;;;;;;5036498;28;20037;-82
2022/06/26 10:45:14;;;;;;;9.63;7.55;;;;;;;;;;5051927;28;20115;-84
2022/06/26 10:47:45;;;;;;;10.68;8.13;;;;;;;;;;5050393;28;20025;-84
2022/06/26 10:50:45;;;;;;;10.65;8.05;;;;;;;;;;5055376;28;20194;-82
2022/06/26 10:53:20;;;;;;;10.88;7.82;;;;;;;;;;5050788;28;20462;-82
2022/06/26 10:55:56;;;;;;;11.30;8.70;;;;;;;;;;5050176;28;20028;-80
2022/06/26 10:58:30;;;;;;;13.15;8.23;;;;;;;;;;5048815;28;20481;-85
2022/06/26 11:01:00;;;;;;;13.88;8.25;;;;;;;;;;5051696;28;20056;-82
2022/06/26 11:03:27;;;;;;;14.63;9.25;;;;;;;;;;5050035;28;20079;-83
2022/06/26 11:06:06;;;;;;;15.98;9.10;;;;;;;;;;5052956;28;20040;-83
2022/06/26 11:08:34;;;;;;;11.27;8.55;;;;;;;;;;5050919;28;20027;-82
2022/06/26 11:11:07;;;;;;;17.50;13.60;;;;;;;;;;5050468;28;20032;-83
2022/06/26 11:13:36;;;;;;;9.82;8.85;;;;;;;;;;5050892;28;20036;-83
2022/06/26 11:16:05;;;;;;;10.93;8.52;;;;;;;;;;5050920;28;20109;-84
2022/06/26 11:18:35;;;;;;;9.77;8.75;;;;;;;;;;5050433;28;20024;-84
2022/06/26 11:21:01;;;;;;;12.43;8.73;;;;;;;;;;5049975;28;20052;-82
2022/06/26 11:23:35;;;;;;;11.48;8.63;;;;;;;;;;5065433;28;20028;-82
2022/06/26 11:26:04;;;;;;;8.85;7.90;;;;;;;;;;5070507;28;20376;-84
2022/06/26 11:28:38;;;;;;;12.25;8.90;;;;;;;;;;5072522;28;20031;-83
2022/06/26 11:31:06;;;;;;;12.90;8.98;;;;;;;;;;5074758;28;20024;-83
2022/06/26 11:33:36;;;;;;;11.98;8.65;;;;;;;;;;5074984;28;20031;-84
2022/06/26 11:36:14;;;;;;;13.20;8.30;;;;;;;;;;5071503;28;20070;-84
2022/06/26 11:38:51;;;;;;;9.40;8.02;;;;;;;;;;5071326;28;20108;-83
2022/06/26 11:41:17;;;;;;;10.90;7.82;;;;;;;;;;5054680;28;20036;-81
2022/06/26 11:43:47;;;;;;;11.45;7.95;;;;;;;;;;5071605;28;20020;-84
2022/06/26 11:46:13;;;;;;;9.85;7.72;;;;;;;;;;5070552;28;20034;-82
2022/06/26 11:48:38;;;;;;;11.90;7.95;;;;;;;;;;5071174;28;20028;-81
2022/06/26 11:51:06;;;;;;;9.23;7.15;;;;;;;;;;5070398;28;20472;-83
2022/06/26 11:53:33;;;;;;;9.15;6.85;;;;;;;;;;5069988;28;20029;-81
2022/06/26 11:56:03;;;;;;;10.30;7.05;;;;;;;;;;5053250;28;20036;-81
2022/06/26 11:58:35;;;;;;;9.00;7.63;;;;;;;;;;5073433;28;20502;-81
2022/06/26 12:01:09;;;;;;;8.35;7.50;;;;;;;;;;5069564;28;20031;-83
2022/06/26 12:03:55;;;;;;;16.67;8.02;;;;;;;;;;5068522;28;20017;-85
2022/06/26 12:06:37;;;;;;;12.57;8.07;;;;;;;;;;5071029;28;20055;-82
2022/06/26 12:09:16;;;;;;;8.13;7.32;;;;;;;;;;5072854;28;20040;-84
2022/06/26 12:11:43;;;;;;;8.30;7.43;;;;;;;;;;5078145;28;20021;-83
2022/06/26 12:14:13;;;;;;;10.15;7.90;;;;;;;;;;5081089;28;20032;-81
2022/06/26 12:16:50;;;;;;;7.18;6.45;;;;;;;;;;5084010;28;20016;-82
2022/06/26 12:19:17;;;;;;;8.65;7.07;;;;;;;;;;5081370;28;20043;-84
2022/06/26 12:21:47;;;;;;;10.18;6.60;;;;;;;;;;5077085;28;20044;-84
2022/06/26 12:24:14;;;;;;;7.85;7.07;;;;;;;;;;5057405;28;20100;-83
2022/06/26 12:26:41;;;;;;;8.55;7.13;;;;;;;;;;5054855;28;20113;-83
2022/06/26 12:29:12;;;;;;;8.45;7.18;;;;;;;;;;5052817;28;20025;-84
2022/06/26 12:31:38;;;;;;;7.32;6.10;;;;;;;;;;5050283;28;20365;-87
2022/06/26 12:34:05;;;;;;;19.05;7.07;;;;;;;;;;5051727;28;20021;-82
2022/06/26 12:36:32;;;;;;;6.78;6.15;;;;;;;;;;5052385;28;20037;-82
2022/06/26 12:38:57;;;;;;;28.42;18.65;;;;;;;;;;5056111;28;20029;-81
2022/06/26 12:41:23;;;;;;;6.78;6.07;;;;;;;;;;5064669;28;20025;-79
2022/06/26 12:43:55;;;;;;;6.70;6.03;;;;;;;;;;5061977;28;20071;-82
2022/06/26 12:46:21;;;;;;;6.60;5.75;;;;;;;;;;5059709;28;20017;-81
2022/06/26 12:48:47;;;;;;;7.57;6.07;;;;;;;;;;5054032;28;20090;-85
2022/06/26 12:51:14;;;;;;;6.97;6.10;;;;;;;;;;5048793;28;20029;-84
2022/06/26 12:53:42;;;;;;;8.50;6.07;;;;;;;;;;5051834;28;20044;-83
2022/06/26 12:56:10;;;;;;;7.72;6.00;;;;;;;;;;5049838;28;20056;-85
2022/06/26 12:58:35;;;;;;;5.88;5.22;;;;;;;;;;5049926;28;20025;-83
2022/06/26 13:01:01;;;;;;;9.10;5.60;;;;;;;;;;5050445;28;20588;-80
2022/06/26 13:03:27;;;;;;;15.93;6.07;;;;;;;;;;5048822;28;20033;-84
2022/06/26 13:05:53;;;;;;;12.00;5.90;;;;;;;;;;5049700;28;20126;-83
2022/06/26 13:08:18;;;;;;;9.30;5.93;;;;;;;;;;5049118;28;20036;-83
2022/06/26 13:10:45;;;;;;;11.90;5.95;;;;;;;;;;5048960;28;20108;-82
2022/06/26 13:13:12;;;;;;;7.90;5.43;;;;;;;;;;5047702;28;20028;-81
2022/06/26 13:15:37;;;;;;;18.42;6.40;;;;;;;;;;5049584;28;20040;-81
2022/06/26 13:18:04;;;;;;;6.10;4.95;;;;;;;;;;5047917;28;20205;-80
2022/06/26 13:20:29;;;;;;;5.90;4.95;;;;;;;;;;5047411;28;20045;-81
2022/06/26 13:22:55;;;;;;;7.68;5.40;;;;;;;;;;5063370;28;20503;-82
2022/06/26 13:25:22;;;;;;;4.85;4.40;;;;;;;;;;5071037;28;20039;-81
2022/06/26 13:27:47;;;;;;;9.75;4.90;;;;;;;;;;5055203;28;20129;-82
2022/06/26 13:30:13;;;;;;;8.07;4.60;;;;;;;;;;5071689;28;20433;-82
2022/06/26 13:32:38;;;;;;;5.85;4.82;;;;;;;;;;5070962;28;20055;-83
2022/06/26 13:35:05;;;;;;;6.55;4.38;;;;;;;;;;5072823;28;20024;-81
2022/06/26 13:37:30;;;;;;;5.00;4.50;;;;;;;;;;5070969;28;20032;-81
2022/06/26 13:39:56;;;;;;;5.53;4.38;;;;;;;;;;5072402;28;20358;-81
2022/06/26 13:42:22;;;;;;;5.50;4.45;;;;;;;;;;5072412;28;20035;-79
2022/06/26 13:44:48;;;;;;;5.97;4.57;;;;;;;;;;5071966;28;20051;-83
2022/06/26 13:47:14;;;;;;;8.88;5.72;;;;;;;;;;5073270;28;20024;-82
2022/06/26 13:49:45;;;;;;;5.40;4.95;;;;;;;;;;5071676;28;20115;-81
2022/06/26 13:52:12;;;;;;;9.18;5.13;;;;;;;;;;5071624;28;20028;-82
2022/06/26 13:54:38;;;;;;;13.32;5.80;;;;;;;;;;5073296;28;20027;-82
2022/06/26 13:57:05;;;;;;;4.70;4.30;;;;;;;;;;5072763;28;20025;-81
2022/06/26 13:59:30;;;;;;;6.32;5.00;;;;;;;;;;5072937;28;20028;-84
2022/06/26 14:02:00;;;;;;;4.50;4.10;;;;;;;;;;5071209;28;20472;-81
2022/06/26 14:04:25;;;;;;;5.15;4.18;;;;;;;;;;5073232;28;20017;-83
2022/06/26 14:06:51;;;;;;;5.50;4.40;;;;;;;;;;5071596;28;20100;-82
2022/06/26 14:09:17;;;;;;;7.57;4.93;;;;;;;;;;5070796;28;20088;-82
2022/06/26 14:11:42;;;;;;;7.57;5.20;;;;;;;;;;5054327;28;20476;-79
2022/06/26 14:14:08;;;;;;;5.90;4.65;;;;;;;;;;5071452;28;20025;-80
2022/06/26 14:16:35;;;;;;;6.38;5.13;;;;;;;;;;5070232;28;20171;-82
2022/06/26 14:19:00;;;;;;;5.75;5.20;;;;;;;;;;5072635;28;20024;-81
2022/06/26 14:21:26;;;;;;;5.45;4.47;;;;;;;;;;5069878;28;20060;-82
2022/06/26 14:26:36;;;;;;;8.10;4.72;;;;;;;;;;5037189;28;20043;-80
2022/06/26 14:29:02;;;;;;;5.93;3.78;;;;;;;;;;5051806;28;20385;-81
2022/06/26 14:31:28;;;;;;;4.35;3.70;;;;;;;;;;5050216;28;20039;-82
2022/06/26 14:33:53;;;;;;;4.72;4.32;;;;;;;;;;5050749;28;20444;-81
2022/06/26 14:36:19;;;;;;;36.10;7.20;;;;;;;;;;5051468;28;20396;-83
2022/06/26 14:38:45;;;;;;;5.43;4.30;;;;;;;;;;5052605;28;20033;-81
2022/06/26 14:41:11;;;;;;;6.40;3.78;;;;;;;;;;5051094;28;20032;-77
2022/06/26 14:43:36;;;;;;;5.50;3.42;;;;;;;;;;5050390;28;20029;-82